Gillisonville, South Carolina
Current Conditions -  °F | °C
As of 10:56 AM on Thursday 27 Nov 2014 (Local Time) from KNBC Reporting Station
Clear Clear  
Wind Chill: 54°   Ceiling: Unl
Heat Index: 54°   Visibility: 10mi
Dew Point: 31°   Wind: 15mph
Humidity: 41%   Direction: 290°WNW
Pressure: 30.17"   Gusts: 26mph
Location:  32.4773°N, 80.9264°W
Report Text: KNBC 271556Z AUTO 29013G23KT 10SM CLR 12/M01 A3017 RMK AO2 SLP216 T01221006
Loading
Personal Weather Stations






























Interactive Weather Map New forecast layout! Learn more

10-Day Weather Forecast

Advertisements
Track Severe Weather on mobile